sensor_id;sensor_type;location;lat;lon;timestamp;temperature;humidity
42145;DHT22;27813;43.516;11.890;2023-02-12T05:35:05;-3271.30;78.90
42145;DHT22;27813;43.516;11.890;2023-02-12T05:39:09;-3271.30;79.00
42145;DHT22;27813;43.516;11.890;2023-02-12T05:43:13;-3271.30;79.10
42145;DHT22;27813;43.516;11.890;2023-02-12T05:47:17;-3271.30;79.30
42145;DHT22;27813;43.516;11.890;2023-02-12T05:51:22;-3271.30;79.00
42145;DHT22;27813;43.516;11.890;2023-02-12T05:55:25;-3271.20;79.10
42145;DHT22;27813;43.516;11.890;2023-02-12T05:59:29;-3271.20;79.20
42145;DHT22;27813;43.516;11.890;2023-02-12T06:03:33;-3271.10;79.30
42145;DHT22;27813;43.516;11.890;2023-02-12T06:07:36;-3271.10;79.20
42145;DHT22;27813;43.516;11.890;2023-02-12T06:11:40;-3271.10;79.20
42145;DHT22;27813;43.516;11.890;2023-02-12T06:15:44;-3271.10;79.30
42145;DHT22;27813;43.516;11.890;2023-02-12T06:19:48;-3271.10;79.40
42145;DHT22;27813;43.516;11.890;2023-02-12T06:23:51;-3271.10;79.50
42145;DHT22;27813;43.516;11.890;2023-02-12T06:27:55;-3271.10;79.40
42145;DHT22;27813;43.516;11.890;2023-02-12T06:32:01;-3271.20;79.40
42145;DHT22;27813;43.516;11.890;2023-02-12T06:36:05;-3271.20;79.50
42145;DHT22;27813;43.516;11.890;2023-02-12T06:40:08;-3271.20;79.50
42145;DHT22;27813;43.516;11.890;2023-02-12T06:44:12;-3271.30;79.40
42145;DHT22;27813;43.516;11.890;2023-02-12T06:48:16;-3271.30;79.30
42145;DHT22;27813;43.516;11.890;2023-02-12T06:52:20;-3271.30;79.30
42145;DHT22;27813;43.516;11.890;2023-02-12T06:56:25;-3271.40;79.20
42145;DHT22;27813;43.516;11.890;2023-02-12T07:00:29;-3271.50;79.10
42145;DHT22;27813;43.516;11.890;2023-02-12T07:04:34;-3271.70;78.90
42145;DHT22;27813;43.516;11.890;2023-02-12T07:08:38;-3271.70;78.90
42145;DHT22;27813;43.516;11.890;2023-02-12T07:12:41;-3271.80;78.80
42145;DHT22;27813;43.516;11.890;2023-02-12T07:16:45;-3271.80;78.80
42145;DHT22;27813;43.516;11.890;2023-02-12T07:20:49;-3272.00;78.80
42145;DHT22;27813;43.516;11.890;2023-02-12T07:24:52;-3272.10;78.70
42145;DHT22;27813;43.516;11.890;2023-02-12T07:28:56;-3272.20;78.70
42145;DHT22;27813;43.516;11.890;2023-02-12T07:33:03;-3272.40;78.70
42145;DHT22;27813;43.516;11.890;2023-02-12T07:37:06;-3272.60;78.60
42145;DHT22;27813;43.516;11.890;2023-02-12T07:41:11;-3272.80;78.40
42145;DHT22;27813;43.516;11.890;2023-02-12T07:45:15;-3273.00;78.10
42145;DHT22;27813;43.516;11.890;2023-02-12T07:49:20;-3273.20;78.00
42145;DHT22;27813;43.516;11.890;2023-02-12T07:53:24;-3273.30;77.90
42145;DHT22;27813;43.516;11.890;2023-02-12T07:57:28;-3273.50;77.70
42145;DHT22;27813;43.516;11.890;2023-02-12T08:01:35;-3273.70;77.50
42145;DHT22;27813;43.516;11.890;2023-02-12T08:05:39;-3273.90;77.30
42145;DHT22;27813;43.516;11.890;2023-02-12T08:09:43;-3274.10;77.00
42145;DHT22;27813;43.516;11.890;2023-02-12T08:13:46;-3274.20;76.90
42145;DHT22;27813;43.516;11.890;2023-02-12T08:17:50;-3274.30;76.70
42145;DHT22;27813;43.516;11.890;2023-02-12T08:21:54;-3274.50;76.70
42145;DHT22;27813;43.516;11.890;2023-02-12T08:26:05;-3274.70;76.60
42145;DHT22;27813;43.516;11.890;2023-02-12T08:30:09;-3274.80;76.20
42145;DHT22;27813;43.516;11.890;2023-02-12T08:34:21;-3275.10;76.10
42145;DHT22;27813;43.516;11.890;2023-02-12T08:38:25;-3275.30;75.60
42145;DHT22;27813;43.516;11.890;2023-02-12T08:42:29;-3275.40;75.40
42145;DHT22;27813;43.516;11.890;2023-02-12T08:46:34;-3275.50;75.20
42145;DHT22;27813;43.516;11.890;2023-02-12T08:50:38;-3275.70;75.00
42145;DHT22;27813;43.516;11.890;2023-02-12T08:54:42;-3275.80;74.80
42145;DHT22;27813;43.516;11.890;2023-02-12T08:58:45;-3275.90;74.70
42145;DHT22;27813;43.516;11.890;2023-02-12T09:02:50;-3276.00;74.50
42145;DHT22;27813;43.516;11.890;2023-02-12T09:06:54;-3276.20;74.50
42145;DHT22;27813;43.516;11.890;2023-02-12T09:10:58;-3276.30;74.30
42145;DHT22;27813;43.516;11.890;2023-02-12T09:15:01;-3276.50;74.10
42145;DHT22;27813;43.516;11.890;2023-02-12T09:19:05;-3276.60;74.10
42145;DHT22;27813;43.516;11.890;2023-02-12T09:23:10;0.00;73.80
42145;DHT22;27813;43.516;11.890;2023-02-12T09:27:14;0.00;73.60
42145;DHT22;27813;43.516;11.890;2023-02-12T09:31:20;0.20;73.30
42145;DHT22;27813;43.516;11.890;2023-02-12T09:35:25;0.40;73.10
42145;DHT22;27813;43.516;11.890;2023-02-12T09:39:29;0.60;72.80
42145;DHT22;27813;43.516;11.890;2023-02-12T09:43:36;0.70;72.50
42145;DHT22;27813;43.516;11.890;2023-02-12T09:47:43;0.90;72.30
42145;DHT22;27813;43.516;11.890;2023-02-12T09:51:50;0.90;72.30
42145;DHT22;27813;43.516;11.890;2023-02-12T09:55:56;1.10;72.30
42145;DHT22;27813;43.516;11.890;2023-02-12T10:00:07;1.40;72.10
42145;DHT22;27813;43.516;11.890;2023-02-12T10:04:11;1.50;71.60
42145;DHT22;27813;43.516;11.890;2023-02-12T10:12:25;1.80;71.10
42145;DHT22;27813;43.516;11.890;2023-02-12T10:28:51;2.40;70.10
42145;DHT22;27813;43.516;11.890;2023-02-12T10:32:58;2.60;69.90
42145;DHT22;27813;43.516;11.890;2023-02-12T10:41:12;2.90;69.20
42145;DHT22;27813;43.516;11.890;2023-02-12T10:45:23;3.00;68.90
42145;DHT22;27813;43.516;11.890;2023-02-12T10:49:28;3.10;68.50
42145;DHT22;27813;43.516;11.890;2023-02-12T10:57:40;3.40;68.10
42145;DHT22;27813;43.516;11.890;2023-02-12T11:01:45;3.50;67.90
42145;DHT22;27813;43.516;11.890;2023-02-12T11:05:49;3.50;67.70
42145;DHT22;27813;43.516;11.890;2023-02-12T11:09:54;3.60;67.60
42145;DHT22;27813;43.516;11.890;2023-02-12T11:14:15;3.70;67.40
42145;DHT22;27813;43.516;11.890;2023-02-12T11:18:24;3.90;67.30
42145;DHT22;27813;43.516;11.890;2023-02-12T11:22:28;3.90;67.10
42145;DHT22;27813;43.516;11.890;2023-02-12T11:26:33;4.20;67.00
42145;DHT22;27813;43.516;11.890;2023-02-12T11:30:37;4.30;66.70
42145;DHT22;27813;43.516;11.890;2023-02-12T11:35:33;4.50;66.30
42145;DHT22;27813;43.516;11.890;2023-02-12T11:39:25;4.70;65.90
42145;DHT22;27813;43.516;11.890;2023-02-12T11:43:30;5.00;65.40
42145;DHT22;27813;43.516;11.890;2023-02-12T11:47:36;5.20;65.00
42145;DHT22;27813;43.516;11.890;2023-02-12T11:51:45;5.40;64.80
42145;DHT22;27813;43.516;11.890;2023-02-12T11:55:59;5.50;64.60
42145;DHT22;27813;43.516;11.890;2023-02-12T12:00:10;5.80;64.60
42145;DHT22;27813;43.516;11.890;2023-02-12T12:04:24;6.10;63.90
42145;DHT22;27813;43.516;11.890;2023-02-12T12:08:41;6.40;63.50
42145;DHT22;27813;43.516;11.890;2023-02-12T12:12:50;6.60;63.50
42145;DHT22;27813;43.516;11.890;2023-02-12T12:17:03;7.00;62.80
42145;DHT22;27813;43.516;11.890;2023-02-12T12:21:29;7.50;62.30
42145;DHT22;27813;43.516;11.890;2023-02-12T12:25:41;7.90;61.70
42145;DHT22;27813;43.516;11.890;2023-02-12T12:29:54;8.10;61.30
42145;DHT22;27813;43.516;11.890;2023-02-12T12:34:10;8.30;61.20
42145;DHT22;27813;43.516;11.890;2023-02-12T12:38:53;8.50;61.10
42145;DHT22;27813;43.516;11.890;2023-02-12T12:47:00;9.10;60.50
42145;DHT22;27813;43.516;11.890;2023-02-12T12:55:18;9.20;59.90
42145;DHT22;27813;43.516;11.890;2023-02-12T12:59:31;9.00;59.90
42145;DHT22;27813;43.516;11.890;2023-02-12T13:03:53;9.00;60.10
42145;DHT22;27813;43.516;11.890;2023-02-12T13:12:32;9.10;59.90
42145;DHT22;27813;43.516;11.890;2023-02-12T13:21:09;9.20;59.60
42145;DHT22;27813;43.516;11.890;2023-02-12T13:29:53;9.00;59.50
42145;DHT22;27813;43.516;11.890;2023-02-12T13:33:59;8.70;59.60
42145;DHT22;27813;43.516;11.890;2023-02-12T13:38:03;8.50;59.70
42145;DHT22;27813;43.516;11.890;2023-02-12T13:42:22;8.30;59.90
42145;DHT22;27813;43.516;11.890;2023-02-12T13:46:44;8.20;60.00
42145;DHT22;27813;43.516;11.890;2023-02-12T14:03:35;8.20;59.50
42145;DHT22;27813;43.516;11.890;2023-02-12T14:07:43;8.10;59.30
42145;DHT22;27813;43.516;11.890;2023-02-12T14:11:49;7.90;59.40
42145;DHT22;27813;43.516;11.890;2023-02-12T14:15:54;7.90;59.30
42145;DHT22;27813;43.516;11.890;2023-02-12T14:24:39;7.80;59.30
42145;DHT22;27813;43.516;11.890;2023-02-12T14:37:11;7.60;59.30
42145;DHT22;27813;43.516;11.890;2023-02-12T14:41:36;7.60;59.30
42145;DHT22;27813;43.516;11.890;2023-02-12T14:45:40;7.50;59.30
42145;DHT22;27813;43.516;11.890;2023-02-12T14:49:45;7.50;59.30
42145;DHT22;27813;43.516;11.890;2023-02-12T14:53:52;7.40;59.40
42145;DHT22;27813;43.516;11.890;2023-02-12T14:57:58;7.40;59.50
42145;DHT22;27813;43.516;11.890;2023-02-12T15:02:02;7.40;59.40
42145;DHT22;27813;43.516;11.890;2023-02-12T15:06:12;7.40;59.40
42145;DHT22;27813;43.516;11.890;2023-02-12T15:10:18;7.40;59.30
42145;DHT22;27813;43.516;11.890;2023-02-12T15:14:33;7.40;59.20
42145;DHT22;27813;43.516;11.890;2023-02-12T15:18:53;7.40;59.10
42145;DHT22;27813;43.516;11.890;2023-02-12T15:22:58;7.40;59.40
42145;DHT22;27813;43.516;11.890;2023-02-12T15:27:01;7.50;58.70
42145;DHT22;27813;43.516;11.890;2023-02-12T15:31:08;7.60;57.80
42145;DHT22;27813;43.516;11.890;2023-02-12T15:35:21;7.90;56.10
42145;DHT22;27813;43.516;11.890;2023-02-12T15:39:30;8.00;55.30
42145;DHT22;27813;43.516;11.890;2023-02-12T15:43:39;8.10;54.70
42145;DHT22;27813;43.516;11.890;2023-02-12T15:47:44;8.10;54.10
42145;DHT22;27813;43.516;11.890;2023-02-12T15:51:49;8.20;53.10
42145;DHT22;27813;43.516;11.890;2023-02-12T15:55:52;8.40;52.00
42145;DHT22;27813;43.516;11.890;2023-02-12T16:00:05;8.40;50.90
42145;DHT22;27813;43.516;11.890;2023-02-12T16:04:15;8.50;49.90
42145;DHT22;27813;43.516;11.890;2023-02-12T16:08:20;8.70;48.20
42145;DHT22;27813;43.516;11.890;2023-02-12T16:12:26;8.70;47.90
42145;DHT22;27813;43.516;11.890;2023-02-12T16:16:45;8.60;48.10
42145;DHT22;27813;43.516;11.890;2023-02-12T16:25:26;8.20;48.90
42145;DHT22;27813;43.516;11.890;2023-02-12T16:29:30;8.40;48.10
42145;DHT22;27813;43.516;11.890;2023-02-12T16:37:40;8.40;46.50
42145;DHT22;27813;43.516;11.890;2023-02-12T16:41:55;8.40;46.40
42145;DHT22;27813;43.516;11.890;2023-02-12T16:46:02;8.20;46.30
42145;DHT22;27813;43.516;11.890;2023-02-12T16:50:13;8.20;45.90
42145;DHT22;27813;43.516;11.890;2023-02-12T16:54:28;8.00;46.20
42145;DHT22;27813;43.516;11.890;2023-02-12T16:58:32;7.90;46.40
42145;DHT22;27813;43.516;11.890;2023-02-12T17:02:36;7.70;46.90
42145;DHT22;27813;43.516;11.890;2023-02-12T17:06:40;7.60;47.20
42145;DHT22;27813;43.516;11.890;2023-02-12T17:10:45;7.40;47.60
42145;DHT22;27813;43.516;11.890;2023-02-12T17:14:55;6.90;48.30
42145;DHT22;27813;43.516;11.890;2023-02-12T17:19:00;6.50;49.40
42145;DHT22;27813;43.516;11.890;2023-02-12T17:23:05;6.20;50.10
42145;DHT22;27813;43.516;11.890;2023-02-12T17:27:10;6.00;50.60
42145;DHT22;27813;43.516;11.890;2023-02-12T17:31:16;5.90;50.90
42145;DHT22;27813;43.516;11.890;2023-02-12T17:35:20;5.80;51.20
42145;DHT22;27813;43.516;11.890;2023-02-12T17:39:26;5.70;51.60
42145;DHT22;27813;43.516;11.890;2023-02-12T17:43:31;5.50;51.80
42145;DHT22;27813;43.516;11.890;2023-02-12T17:47:35;5.20;52.40
42145;DHT22;27813;43.516;11.890;2023-02-12T17:51:46;4.90;53.10
42145;DHT22;27813;43.516;11.890;2023-02-12T17:55:51;4.50;53.80
42145;DHT22;27813;43.516;11.890;2023-02-12T17:59:57;4.30;54.40
42145;DHT22;27813;43.516;11.890;2023-02-12T18:04:01;4.30;54.50
42145;DHT22;27813;43.516;11.890;2023-02-12T18:08:06;4.30;54.80
42145;DHT22;27813;43.516;11.890;2023-02-12T18:12:10;4.20;54.90
42145;DHT22;27813;43.516;11.890;2023-02-12T18:16:14;4.10;55.10
42145;DHT22;27813;43.516;11.890;2023-02-12T18:20:18;3.90;55.50
42145;DHT22;27813;43.516;11.890;2023-02-12T18:24:22;3.90;55.90
42145;DHT22;27813;43.516;11.890;2023-02-12T18:28:26;4.00;56.00
42145;DHT22;27813;43.516;11.890;2023-02-12T18:32:30;4.00;56.20
42145;DHT22;27813;43.516;11.890;2023-02-12T18:36:34;3.90;56.40
42145;DHT22;27813;43.516;11.890;2023-02-12T18:40:38;3.90;56.70
42145;DHT22;27813;43.516;11.890;2023-02-12T18:44:42;4.00;56.80
42145;DHT22;27813;43.516;11.890;2023-02-12T18:48:46;3.90;56.80
42145;DHT22;27813;43.516;11.890;2023-02-12T18:52:55;3.80;57.10
42145;DHT22;27813;43.516;11.890;2023-02-12T18:57:00;3.70;57.50
42145;DHT22;27813;43.516;11.890;2023-02-12T19:01:17;3.70;57.80
42145;DHT22;27813;43.516;11.890;2023-02-12T19:05:21;3.70;58.10
42145;DHT22;27813;43.516;11.890;2023-02-12T19:09:25;4.00;58.10
42145;DHT22;27813;43.516;11.890;2023-02-12T19:13:29;4.30;57.80
42145;DHT22;27813;43.516;11.890;2023-02-12T19:17:33;4.40;57.80
42145;DHT22;27813;43.516;11.890;2023-02-12T19:21:38;4.70;57.70
42145;DHT22;27813;43.516;11.890;2023-02-12T19:25:42;4.80;57.40
42145;DHT22;27813;43.516;11.890;2023-02-12T19:29:47;4.90;57.50
42145;DHT22;27813;43.516;11.890;2023-02-12T19:33:55;4.90;57.40
42145;DHT22;27813;43.516;11.890;2023-02-12T19:37:59;4.60;57.70
42145;DHT22;27813;43.516;11.890;2023-02-12T19:42:04;4.40;58.30
42145;DHT22;27813;43.516;11.890;2023-02-12T19:46:12;4.20;58.60
42145;DHT22;27813;43.516;11.890;2023-02-12T19:50:17;4.00;59.30
42145;DHT22;27813;43.516;11.890;2023-02-12T19:54:23;3.90;59.80
42145;DHT22;27813;43.516;11.890;2023-02-12T19:58:28;4.20;60.30
42145;DHT22;27813;43.516;11.890;2023-02-12T20:02:31;4.60;60.00
42145;DHT22;27813;43.516;11.890;2023-02-12T20:06:36;5.10;59.50
42145;DHT22;27813;43.516;11.890;2023-02-12T20:10:40;5.50;59.20
42145;DHT22;27813;43.516;11.890;2023-02-12T20:14:44;5.80;58.70
42145;DHT22;27813;43.516;11.890;2023-02-12T20:18:49;5.90;58.50
42145;DHT22;27813;43.516;11.890;2023-02-12T20:22:54;6.10;58.30
42145;DHT22;27813;43.516;11.890;2023-02-12T20:26:59;6.30;58.20
42145;DHT22;27813;43.516;11.890;2023-02-12T20:31:09;6.40;57.80
42145;DHT22;27813;43.516;11.890;2023-02-12T20:35:16;6.40;57.90
42145;DHT22;27813;43.516;11.890;2023-02-12T20:39:20;6.50;57.90
42145;DHT22;27813;43.516;11.890;2023-02-12T20:43:29;6.50;57.90
42145;DHT22;27813;43.516;11.890;2023-02-12T20:47:33;6.60;57.90
42145;DHT22;27813;43.516;11.890;2023-02-12T20:51:37;6.60;57.70
42145;DHT22;27813;43.516;11.890;2023-02-12T20:55:42;6.50;57.80
42145;DHT22;27813;43.516;11.890;2023-02-12T20:59:47;6.40;57.90
42145;DHT22;27813;43.516;11.890;2023-02-12T21:03:54;6.30;58.30
42145;DHT22;27813;43.516;11.890;2023-02-12T21:07:59;6.30;58.40
42145;DHT22;27813;43.516;11.890;2023-02-12T21:12:04;6.30;58.30
42145;DHT22;27813;43.516;11.890;2023-02-12T21:16:09;6.30;58.30
42145;DHT22;27813;43.516;11.890;2023-02-12T21:20:16;6.30;58.40
42145;DHT22;27813;43.516;11.890;2023-02-12T21:24:21;6.30;58.40
42145;DHT22;27813;43.516;11.890;2023-02-12T21:28:25;6.30;58.50
42145;DHT22;27813;43.516;11.890;2023-02-12T21:32:30;6.00;58.60
42145;DHT22;27813;43.516;11.890;2023-02-12T21:36:36;5.90;59.00
42145;DHT22;27813;43.516;11.890;2023-02-12T21:40:40;5.60;59.10
42145;DHT22;27813;43.516;11.890;2023-02-12T21:44:44;5.10;59.50
42145;DHT22;27813;43.516;11.890;2023-02-12T21:48:49;4.50;60.40
42145;DHT22;27813;43.516;11.890;2023-02-12T21:52:53;4.10;61.40
42145;DHT22;27813;43.516;11.890;2023-02-12T21:56:59;3.90;62.00
42145;DHT22;27813;43.516;11.890;2023-02-12T22:01:13;3.50;62.50
42145;DHT22;27813;43.516;11.890;2023-02-12T22:05:17;3.30;63.10
42145;DHT22;27813;43.516;11.890;2023-02-12T22:09:21;3.20;63.80
42145;DHT22;27813;43.516;11.890;2023-02-12T22:13:25;3.40;63.70
42145;DHT22;27813;43.516;11.890;2023-02-12T22:17:30;3.40;63.60
42145;DHT22;27813;43.516;11.890;2023-02-12T22:21:36;3.60;63.30
42145;DHT22;27813;43.516;11.890;2023-02-12T22:25:40;3.70;62.90
42145;DHT22;27813;43.516;11.890;2023-02-12T22:29:44;3.70;62.90
42145;DHT22;27813;43.516;11.890;2023-02-12T22:33:48;3.70;63.00
42145;DHT22;27813;43.516;11.890;2023-02-12T22:37:52;3.50;63.00
42145;DHT22;27813;43.516;11.890;2023-02-12T22:41:56;3.30;63.40
42145;DHT22;27813;43.516;11.890;2023-02-12T22:46:00;2.90;63.90
42145;DHT22;27813;43.516;11.890;2023-02-12T22:50:04;2.60;64.50
42145;DHT22;27813;43.516;11.890;2023-02-12T22:54:12;2.30;65.00
42145;DHT22;27813;43.516;11.890;2023-02-12T22:58:17;2.10;65.50
42145;DHT22;27813;43.516;11.890;2023-02-12T23:02:21;1.90;66.20
42145;DHT22;27813;43.516;11.890;2023-02-12T23:06:26;1.80;66.40
42145;DHT22;27813;43.516;11.890;2023-02-12T23:10:30;1.60;66.80
42145;DHT22;27813;43.516;11.890;2023-02-12T23:14:37;1.60;67.30
42145;DHT22;27813;43.516;11.890;2023-02-12T23:18:41;1.60;67.50
42145;DHT22;27813;43.516;11.890;2023-02-12T23:22:45;1.70;67.40
42145;DHT22;27813;43.516;11.890;2023-02-12T23:26:49;1.80;67.40
42145;DHT22;27813;43.516;11.890;2023-02-12T23:30:53;1.90;66.90
42145;DHT22;27813;43.516;11.890;2023-02-12T23:34:56;1.90;67.00
42145;DHT22;27813;43.516;11.890;2023-02-12T23:39:00;1.80;67.00
42145;DHT22;27813;43.516;11.890;2023-02-12T23:43:08;1.70;67.40
42145;DHT22;27813;43.516;11.890;2023-02-12T23:47:12;1.70;67.60
42145;DHT22;27813;43.516;11.890;2023-02-12T23:51:16;1.70;67.70
42145;DHT22;27813;43.516;11.890;2023-02-12T23:55:20;1.70;67.90
42145;DHT22;27813;43.516;11.890;2023-02-12T23:59:24;1.80;68.00
